createdAt,value
2018-12-31T00:00:10.327Z,7.40
2018-12-31T00:01:10.316Z,7.30
2018-12-31T00:02:10.319Z,6.70
2018-12-31T00:03:10.320Z,7.30
2018-12-31T00:04:10.288Z,7.50
2018-12-31T00:05:10.296Z,7.50
2018-12-31T00:06:10.267Z,7.70
2018-12-31T00:07:10.270Z,8.00
2018-12-31T00:08:10.241Z,8.80
2018-12-31T00:09:10.233Z,8.30
2018-12-31T00:10:10.226Z,8.10
2018-12-31T00:11:10.238Z,7.80
2018-12-31T00:12:10.322Z,7.30
2018-12-31T00:13:10.189Z,8.80
2018-12-31T00:14:10.176Z,8.60
2018-12-31T00:15:10.170Z,7.70
2018-12-31T00:16:10.158Z,8.30
2018-12-31T00:17:10.184Z,9.10
2018-12-31T00:18:10.140Z,7.60
2018-12-31T00:19:10.128Z,7.40
2018-12-31T00:20:10.114Z,9.50
2018-12-31T00:21:10.104Z,8.50
2018-12-31T00:22:10.128Z,8.00
2018-12-31T00:23:10.117Z,7.70
2018-12-31T00:24:10.169Z,7.80
2018-12-31T00:25:10.070Z,7.70
2018-12-31T00:26:10.050Z,9.00
2018-12-31T00:27:11.580Z,8.40
2018-12-31T00:28:10.028Z,7.00
2018-12-31T00:29:10.049Z,8.40
2018-12-31T00:30:10.005Z,8.70
2018-12-31T00:31:09.996Z,9.00
2018-12-31T00:32:10.002Z,8.10
2018-12-31T00:33:09.979Z,9.30
2018-12-31T00:34:09.970Z,9.20
2018-12-31T00:35:10.000Z,8.50
2018-12-31T00:36:09.944Z,8.40
2018-12-31T00:37:09.948Z,9.30
2018-12-31T00:38:09.922Z,8.90
2018-12-31T00:39:09.914Z,9.60
2018-12-31T00:40:09.901Z,9.20
2018-12-31T00:41:09.914Z,9.80
2018-12-31T00:42:09.906Z,10.30
2018-12-31T00:43:09.905Z,9.90
2018-12-31T00:44:09.862Z,8.30
2018-12-31T00:45:09.850Z,10.10
2018-12-31T00:46:09.837Z,10.50
2018-12-31T00:47:09.853Z,11.50
2018-12-31T00:48:09.835Z,12.60
2018-12-31T00:49:09.802Z,15.10
2018-12-31T00:50:09.796Z,14.00
2018-12-31T00:51:09.784Z,13.80
2018-12-31T00:52:09.771Z,12.70
2018-12-31T00:53:09.762Z,14.70
2018-12-31T00:54:09.786Z,15.50
2018-12-31T00:55:09.761Z,14.10
2018-12-31T00:56:09.809Z,16.30
2018-12-31T00:57:09.724Z,15.60
2018-12-31T00:58:09.730Z,15.70
2018-12-31T00:59:09.698Z,14.20
2018-12-31T01:00:09.701Z,16.30
2018-12-31T01:01:09.688Z,14.70
2018-12-31T01:02:09.686Z,16.00
2018-12-31T01:03:09.682Z,15.90
2018-12-31T01:04:09.661Z,18.20
2018-12-31T01:05:09.657Z,15.40
2018-12-31T01:06:09.663Z,17.20
2018-12-31T01:07:09.612Z,18.70
2018-12-31T01:08:09.629Z,15.60
2018-12-31T01:09:09.604Z,16.40
2018-12-31T01:10:09.582Z,15.40
2018-12-31T01:11:09.573Z,17.20
2018-12-31T01:12:09.564Z,15.50
2018-12-31T01:13:09.618Z,15.40
2018-12-31T01:14:09.562Z,16.50
2018-12-31T01:15:09.565Z,15.30
2018-12-31T01:16:09.610Z,17.10
2018-12-31T01:17:09.507Z,16.60
2018-12-31T01:18:09.538Z,15.70
2018-12-31T01:19:09.639Z,17.50
2018-12-31T01:20:09.530Z,15.10
2018-12-31T01:21:09.478Z,18.10
2018-12-31T01:22:09.511Z,16.90
2018-12-31T01:23:09.493Z,18.70
2018-12-31T01:24:09.474Z,16.30
2018-12-31T01:25:09.947Z,16.30
2018-12-31T01:26:09.410Z,17.00
2018-12-31T01:27:09.404Z,18.20
2018-12-31T01:28:09.440Z,17.70
2018-12-31T01:29:09.389Z,19.90
2018-12-31T01:30:09.396Z,18.10
2018-12-31T01:31:09.362Z,20.30
2018-12-31T01:32:09.384Z,17.90
2018-12-31T01:33:09.374Z,21.30
2018-12-31T01:34:09.327Z,18.20
2018-12-31T01:35:09.314Z,21.80
2018-12-31T01:36:09.304Z,16.60
2018-12-31T01:37:09.296Z,18.00
2018-12-31T01:38:09.302Z,18.20
2018-12-31T01:39:09.287Z,15.30
2018-12-31T01:40:09.269Z,16.60
2018-12-31T01:41:09.251Z,18.50
2018-12-31T01:42:09.241Z,18.90
2018-12-31T01:43:09.244Z,18.60
2018-12-31T01:44:09.219Z,17.70
2018-12-31T01:45:09.206Z,18.70
2018-12-31T01:46:09.258Z,19.50
2018-12-31T01:47:09.190Z,19.40
2018-12-31T01:48:09.329Z,20.50
2018-12-31T01:49:09.210Z,17.60
2018-12-31T01:50:09.175Z,16.40
2018-12-31T01:51:11.424Z,16.00
2018-12-31T01:52:09.148Z,16.20
2018-12-31T01:53:09.145Z,17.30
2018-12-31T01:54:09.126Z,15.50
2018-12-31T01:55:09.126Z,14.90
2018-12-31T01:56:09.084Z,15.20
2018-12-31T01:57:09.075Z,13.70
2018-12-31T01:58:09.322Z,14.20
2018-12-31T01:59:09.063Z,14.40
2018-12-31T02:00:09.052Z,14.70
2018-12-31T02:01:09.041Z,14.50
2018-12-31T02:02:09.032Z,13.30
2018-12-31T02:03:09.031Z,13.50
2018-12-31T02:04:09.008Z,14.00
2018-12-31T02:05:08.993Z,13.40
2018-12-31T02:06:09.001Z,15.80
2018-12-31T02:07:09.010Z,17.60
2018-12-31T02:08:09.027Z,16.20
2018-12-31T02:09:08.957Z,16.30
2018-12-31T02:10:08.958Z,16.90
2018-12-31T02:11:08.980Z,15.90
2018-12-31T02:12:08.950Z,17.70
2018-12-31T02:13:08.965Z,16.90
2018-12-31T02:14:08.905Z,17.40
2018-12-31T02:15:08.937Z,18.30
2018-12-31T02:16:08.904Z,15.30
2018-12-31T02:17:08.923Z,15.60
2018-12-31T02:18:09.323Z,15.50
2018-12-31T02:19:08.854Z,17.90
2018-12-31T02:20:08.844Z,18.80
2018-12-31T02:21:08.819Z,21.10
2018-12-31T02:22:08.820Z,22.10
2018-12-31T02:23:08.817Z,19.30
2018-12-31T02:24:08.784Z,20.80
2018-12-31T02:25:08.813Z,20.80
2018-12-31T02:26:08.767Z,21.30
2018-12-31T02:27:08.750Z,26.30
2018-12-31T02:28:08.744Z,22.40
2018-12-31T02:29:08.747Z,22.40
2018-12-31T02:30:08.751Z,23.10
2018-12-31T02:31:08.712Z,20.90
2018-12-31T02:32:08.701Z,21.00
2018-12-31T02:33:08.690Z,23.50
2018-12-31T02:34:08.702Z,25.50
2018-12-31T02:35:08.666Z,26.20
2018-12-31T02:36:08.674Z,21.70
2018-12-31T02:37:08.642Z,26.90
2018-12-31T02:38:08.634Z,24.10
2018-12-31T02:39:08.811Z,25.10
2018-12-31T02:40:08.628Z,16.50
2018-12-31T02:41:08.601Z,18.30
2018-12-31T02:42:08.619Z,19.60
2018-12-31T02:43:08.587Z,21.00
2018-12-31T02:44:08.594Z,22.50
2018-12-31T02:45:08.565Z,22.70
2018-12-31T02:46:08.548Z,22.00
2018-12-31T02:47:08.539Z,19.60
2018-12-31T02:48:08.554Z,20.80
2018-12-31T02:49:08.519Z,19.10
2018-12-31T02:50:08.816Z,18.50
2018-12-31T02:51:08.497Z,19.50
2018-12-31T02:52:08.486Z,19.60
2018-12-31T02:53:08.473Z,17.70
2018-12-31T02:54:08.495Z,16.60
2018-12-31T02:55:08.455Z,16.60
2018-12-31T02:56:08.461Z,16.20
2018-12-31T02:57:08.428Z,15.40
2018-12-31T02:58:08.420Z,16.00
2018-12-31T02:59:08.423Z,15.90
2018-12-31T03:00:08.416Z,14.50
2018-12-31T03:01:08.391Z,14.40
2018-12-31T03:02:08.373Z,14.20
2018-12-31T03:03:08.364Z,15.00
2018-12-31T03:04:08.369Z,13.90
2018-12-31T03:05:08.346Z,13.60
2018-12-31T03:06:08.350Z,15.50
2018-12-31T03:07:08.341Z,13.90
2018-12-31T03:08:08.309Z,15.40
2018-12-31T03:09:08.319Z,16.00
2018-12-31T03:10:08.288Z,13.80
2018-12-31T03:11:08.278Z,14.30
2018-12-31T03:12:08.269Z,15.00
2018-12-31T03:13:08.274Z,14.20
2018-12-31T03:14:08.284Z,15.00
2018-12-31T03:15:08.240Z,14.40
2018-12-31T03:16:08.296Z,12.20
2018-12-31T03:17:08.218Z,12.30
2018-12-31T03:18:08.203Z,13.50
2018-12-31T03:19:08.212Z,14.90
2018-12-31T03:20:08.211Z,14.60
2018-12-31T03:21:08.178Z,13.80
2018-12-31T03:22:08.166Z,14.90
2018-12-31T03:23:08.151Z,14.00
2018-12-31T03:24:08.317Z,12.60
2018-12-31T03:25:08.148Z,12.10
2018-12-31T03:26:08.140Z,12.20
2018-12-31T03:27:08.107Z,12.20
2018-12-31T03:28:08.097Z,13.80
2018-12-31T03:29:08.103Z,14.50
2018-12-31T03:30:08.085Z,13.60
2018-12-31T03:31:08.270Z,14.10
2018-12-31T03:32:08.073Z,15.20
2018-12-31T03:33:08.050Z,15.30
2018-12-31T03:34:08.310Z,18.90
2018-12-31T03:35:08.028Z,15.10
2018-12-31T03:36:08.016Z,16.40
2018-12-31T03:37:08.003Z,15.70
2018-12-31T03:38:08.019Z,15.70
2018-12-31T03:39:08.311Z,15.90
2018-12-31T03:40:07.975Z,17.80
2018-12-31T03:41:07.964Z,16.30
2018-12-31T03:42:07.952Z,17.00
2018-12-31T03:43:07.938Z,17.50
2018-12-31T03:44:07.973Z,17.50
2018-12-31T03:45:07.917Z,18.70
2018-12-31T03:46:07.909Z,16.60
2018-12-31T03:47:07.894Z,19.60
2018-12-31T03:48:07.886Z,18.30
2018-12-31T03:49:07.879Z,17.50
2018-12-31T03:50:07.912Z,20.20
2018-12-31T03:51:07.858Z,22.90
2018-12-31T03:52:07.840Z,23.30
2018-12-31T03:53:07.833Z,20.90
2018-12-31T03:54:07.820Z,21.50
2018-12-31T03:55:08.310Z,20.10
2018-12-31T03:56:07.811Z,20.70
2018-12-31T03:57:07.792Z,26.70
2018-12-31T03:58:07.781Z,27.00
2018-12-31T03:59:07.770Z,26.00
2018-12-31T04:00:07.772Z,26.20
2018-12-31T04:01:07.749Z,28.00
2018-12-31T04:02:07.768Z,19.50
2018-12-31T04:03:07.728Z,19.40
2018-12-31T04:04:07.718Z,20.60
2018-12-31T04:05:07.721Z,23.50
2018-12-31T04:06:07.694Z,23.70
2018-12-31T04:07:07.683Z,23.60
2018-12-31T04:08:07.699Z,22.90
2018-12-31T04:09:07.667Z,21.10
2018-12-31T04:10:07.666Z,19.10
2018-12-31T04:11:07.645Z,21.50
2018-12-31T04:12:07.639Z,19.30
2018-12-31T04:13:07.617Z,25.60
2018-12-31T04:14:07.618Z,19.50
2018-12-31T04:15:07.722Z,24.80
2018-12-31T04:16:07.585Z,28.20
2018-12-31T04:17:07.579Z,19.90
2018-12-31T04:18:07.565Z,26.70
2018-12-31T04:19:07.555Z,20.40
2018-12-31T04:20:07.543Z,25.40
2018-12-31T04:21:07.562Z,23.80
2018-12-31T04:22:07.541Z,25.60
2018-12-31T04:23:07.512Z,22.40
2018-12-31T04:24:07.498Z,25.50
2018-12-31T04:25:07.491Z,25.70
2018-12-31T04:26:07.480Z,25.60
2018-12-31T04:27:07.484Z,25.60
2018-12-31T04:28:07.467Z,31.30
2018-12-31T04:29:07.466Z,32.80
2018-12-31T04:30:07.462Z,32.70
2018-12-31T04:31:07.448Z,40.40
2018-12-31T04:32:07.421Z,37.60
2018-12-31T04:33:07.458Z,42.10
2018-12-31T04:34:07.393Z,29.60
2018-12-31T04:35:07.815Z,28.00
2018-12-31T04:36:07.379Z,38.10
2018-12-31T04:37:07.368Z,28.80
2018-12-31T04:38:07.368Z,31.30
2018-12-31T04:39:07.348Z,37.40
2018-12-31T04:40:07.342Z,39.20
2018-12-31T04:41:07.346Z,37.50
2018-12-31T04:42:07.319Z,26.10
2018-12-31T04:43:07.315Z,40.90
2018-12-31T04:44:07.291Z,39.00
2018-12-31T04:45:07.276Z,33.90
2018-12-31T04:46:07.278Z,43.30
2018-12-31T04:47:07.267Z,38.60
2018-12-31T04:48:07.246Z,39.20
2018-12-31T04:49:07.250Z,45.80
2018-12-31T04:50:07.234Z,37.50
2018-12-31T04:51:07.207Z,49.60
2018-12-31T04:52:07.196Z,44.80
2018-12-31T04:53:07.189Z,40.20
2018-12-31T04:54:07.188Z,35.00
2018-12-31T04:55:07.340Z,41.00
2018-12-31T04:56:07.169Z,47.30
2018-12-31T04:57:07.152Z,39.40
2018-12-31T04:58:07.143Z,43.60
2018-12-31T04:59:07.148Z,41.00
2018-12-31T05:00:07.165Z,35.90
2018-12-31T05:01:07.158Z,44.70
2018-12-31T05:02:07.116Z,42.80
2018-12-31T05:03:07.086Z,42.40
2018-12-31T05:04:07.087Z,44.20
2018-12-31T05:05:07.086Z,43.50
2018-12-31T05:06:07.052Z,46.70
2018-12-31T05:07:07.042Z,38.30
2018-12-31T05:08:07.056Z,40.30
2018-12-31T05:09:07.027Z,38.30
2018-12-31T05:10:07.025Z,42.30
2018-12-31T05:11:07.003Z,37.10
2018-12-31T05:12:07.065Z,42.60
2018-12-31T05:13:07.038Z,32.30
2018-12-31T05:14:06.967Z,46.50
2018-12-31T05:15:07.054Z,40.80
2018-12-31T05:16:06.970Z,38.90
2018-12-31T05:17:06.961Z,44.40
2018-12-31T05:18:06.919Z,40.70
2018-12-31T05:19:06.944Z,40.30
2018-12-31T05:20:06.916Z,38.00
2018-12-31T05:21:06.911Z,32.30
2018-12-31T05:22:06.959Z,44.00
2018-12-31T05:23:06.884Z,42.20
2018-12-31T05:24:06.880Z,40.70
2018-12-31T05:25:06.839Z,38.10
2018-12-31T05:26:06.885Z,41.40
2018-12-31T05:27:06.839Z,35.90
2018-12-31T05:28:06.824Z,44.10
2018-12-31T05:29:06.800Z,41.60
2018-12-31T05:30:06.794Z,41.70
2018-12-31T05:31:06.816Z,36.90
2018-12-31T05:32:06.804Z,47.10
2018-12-31T05:33:06.796Z,40.50
2018-12-31T05:34:06.747Z,39.30
2018-12-31T05:35:06.764Z,39.30
2018-12-31T05:36:06.895Z,48.50
2018-12-31T05:37:06.715Z,43.20
2018-12-31T05:38:06.701Z,36.00
2018-12-31T05:39:06.737Z,43.10
2018-12-31T05:40:06.677Z,47.20
2018-12-31T05:41:06.697Z,36.70
2018-12-31T05:42:06.666Z,41.80
2018-12-31T05:43:06.661Z,45.00
2018-12-31T05:44:06.679Z,47.80
2018-12-31T05:45:06.653Z,42.90
2018-12-31T05:46:06.715Z,32.90
2018-12-31T05:47:06.653Z,47.10
2018-12-31T05:48:06.602Z,40.80
2018-12-31T05:49:06.622Z,49.50
2018-12-31T05:50:06.588Z,43.80
2018-12-31T05:51:06.569Z,42.60
2018-12-31T05:52:06.561Z,44.40
2018-12-31T05:53:06.597Z,45.00
2018-12-31T05:54:06.545Z,43.80
2018-12-31T05:55:06.601Z,51.00
2018-12-31T05:56:06.538Z,39.00
2018-12-31T05:57:06.534Z,45.00
2018-12-31T05:58:06.557Z,48.50
2018-12-31T05:59:06.480Z,48.40
2018-12-31T06:00:06.492Z,45.60
2018-12-31T06:01:06.583Z,43.90
2018-12-31T06:02:06.506Z,38.80
2018-12-31T06:03:06.517Z,47.30
2018-12-31T06:04:06.449Z,40.70
2018-12-31T06:05:06.486Z,36.00
2018-12-31T06:06:06.502Z,37.80
2018-12-31T06:07:06.424Z,29.30
2018-12-31T06:08:06.375Z,32.20
2018-12-31T06:09:06.378Z,43.60
2018-12-31T06:10:06.344Z,45.90
2018-12-31T06:11:06.352Z,40.20
2018-12-31T06:12:06.359Z,36.90
2018-12-31T06:13:06.309Z,33.70
2018-12-31T06:14:06.300Z,33.00
2018-12-31T06:15:06.292Z,35.90
2018-12-31T06:16:06.311Z,31.80
2018-12-31T06:17:06.286Z,31.50
2018-12-31T06:18:06.260Z,37.30
2018-12-31T06:19:06.243Z,31.40
2018-12-31T06:20:06.232Z,38.10
2018-12-31T06:21:06.222Z,34.90
2018-12-31T06:22:06.228Z,31.10
2018-12-31T06:23:06.213Z,32.70
2018-12-31T06:24:06.262Z,34.80
2018-12-31T06:25:06.246Z,33.90
2018-12-31T06:26:06.268Z,33.50
2018-12-31T06:27:06.168Z,35.40
2018-12-31T06:28:06.224Z,34.90
2018-12-31T06:29:06.210Z,32.20
2018-12-31T06:30:06.180Z,34.10
2018-12-31T06:31:06.148Z,32.20
2018-12-31T06:32:06.122Z,33.20
2018-12-31T06:33:06.110Z,33.20
2018-12-31T06:34:06.084Z,32.80
2018-12-31T06:35:06.088Z,34.50
2018-12-31T06:36:06.310Z,35.20
2018-12-31T06:37:06.062Z,35.60
2018-12-31T06:38:06.038Z,37.70
2018-12-31T06:39:06.033Z,35.90
2018-12-31T06:40:06.015Z,39.80
2018-12-31T06:41:06.050Z,39.00
2018-12-31T06:42:05.996Z,38.90
2018-12-31T06:43:05.981Z,38.20
2018-12-31T06:44:05.971Z,34.20
2018-12-31T06:45:05.963Z,35.40
2018-12-31T06:46:06.000Z,38.20
2018-12-31T06:47:06.067Z,38.20
2018-12-31T06:48:06.010Z,35.40
2018-12-31T06:49:05.930Z,34.10
2018-12-31T06:50:05.911Z,38.40
2018-12-31T06:51:05.913Z,39.20
2018-12-31T06:52:05.964Z,42.80
2018-12-31T06:53:05.897Z,38.70
2018-12-31T06:54:05.949Z,39.90
2018-12-31T06:55:05.924Z,39.30
2018-12-31T06:56:05.866Z,42.00
2018-12-31T06:57:05.881Z,42.10
2018-12-31T06:58:05.845Z,36.40
2018-12-31T06:59:05.820Z,38.80
2018-12-31T07:00:05.822Z,40.60
2018-12-31T07:01:06.080Z,41.10
2018-12-31T07:02:05.818Z,38.90
2018-12-31T07:03:05.796Z,35.80
2018-12-31T07:04:05.754Z,34.00
2018-12-31T07:05:05.751Z,36.70
2018-12-31T07:06:05.755Z,36.20
2018-12-31T07:07:05.753Z,39.40
2018-12-31T07:08:05.725Z,39.60
2018-12-31T07:09:05.730Z,35.30
2018-12-31T07:10:05.728Z,36.90
2018-12-31T07:11:05.745Z,40.10
2018-12-31T07:12:05.825Z,41.00
2018-12-31T07:13:05.663Z,41.30
2018-12-31T07:14:05.677Z,40.40
2018-12-31T07:15:05.870Z,39.80
2018-12-31T07:16:05.668Z,40.30
2018-12-31T07:17:05.775Z,45.30
2018-12-31T07:18:05.642Z,42.10
2018-12-31T07:19:05.680Z,41.30
2018-12-31T07:20:05.609Z,40.60
2018-12-31T07:21:05.666Z,33.90
2018-12-31T07:22:05.718Z,38.10
2018-12-31T07:23:05.548Z,34.20
2018-12-31T07:24:05.558Z,38.20
2018-12-31T07:25:05.533Z,40.10
2018-12-31T07:26:05.516Z,36.00
2018-12-31T07:27:05.553Z,37.00
2018-12-31T07:28:05.497Z,36.50
2018-12-31T07:29:05.513Z,41.30
2018-12-31T07:30:05.474Z,40.30
2018-12-31T07:31:05.496Z,33.80
2018-12-31T07:32:05.491Z,38.00
2018-12-31T07:33:05.454Z,38.60
2018-12-31T07:34:05.423Z,40.90
2018-12-31T07:35:05.439Z,36.70
2018-12-31T07:36:05.425Z,38.30
2018-12-31T07:37:05.427Z,39.80
2018-12-31T07:38:05.400Z,37.60
2018-12-31T07:39:05.377Z,40.10
2018-12-31T07:40:05.420Z,37.00
2018-12-31T07:41:05.351Z,35.70
2018-12-31T07:42:05.386Z,40.10
2018-12-31T07:43:05.403Z,40.60
2018-12-31T07:44:05.321Z,40.30
2018-12-31T07:45:05.316Z,39.70
2018-12-31T07:46:05.293Z,44.50
2018-12-31T07:47:05.303Z,41.10
2018-12-31T07:48:05.276Z,33.30
2018-12-31T07:49:05.316Z,39.30
2018-12-31T07:50:05.260Z,40.80
2018-12-31T07:51:05.287Z,40.60
2018-12-31T07:52:05.242Z,38.90
2018-12-31T07:53:05.231Z,33.40
2018-12-31T07:54:05.250Z,37.20
2018-12-31T07:55:05.267Z,38.90
2018-12-31T07:56:05.256Z,36.50
2018-12-31T07:57:05.292Z,40.60
2018-12-31T07:58:05.248Z,42.80
2018-12-31T07:59:05.178Z,39.10
2018-12-31T08:00:05.153Z,36.80
2018-12-31T08:01:05.142Z,44.10
2018-12-31T08:02:05.205Z,40.70
2018-12-31T08:03:05.135Z,38.80
2018-12-31T08:04:05.138Z,36.70
2018-12-31T08:05:05.134Z,38.70
2018-12-31T08:06:05.086Z,36.10
2018-12-31T08:07:05.094Z,38.50
2018-12-31T08:08:05.057Z,44.00
2018-12-31T08:09:05.091Z,38.50
2018-12-31T08:10:05.061Z,43.30
2018-12-31T08:11:05.040Z,38.20
2018-12-31T08:12:05.032Z,39.20
2018-12-31T08:13:04.999Z,39.10
2018-12-31T08:14:04.997Z,37.80
2018-12-31T08:15:05.051Z,37.70
2018-12-31T08:16:05.018Z,37.90
2018-12-31T08:17:04.985Z,39.20
2018-12-31T08:18:04.977Z,41.40
2018-12-31T08:19:04.982Z,36.30
2018-12-31T08:20:04.932Z,37.10
2018-12-31T08:21:04.972Z,40.50
2018-12-31T08:22:04.914Z,41.60
2018-12-31T08:23:04.924Z,38.20
2018-12-31T08:24:04.934Z,42.00
2018-12-31T08:25:04.903Z,40.60
2018-12-31T08:26:04.908Z,45.60
2018-12-31T08:27:04.860Z,40.70
2018-12-31T08:28:04.917Z,41.80
2018-12-31T08:29:04.834Z,40.60
2018-12-31T08:30:04.846Z,40.50
2018-12-31T08:31:04.815Z,39.10
2018-12-31T08:32:04.803Z,40.90
2018-12-31T08:33:04.871Z,42.40
2018-12-31T08:34:04.871Z,41.70
2018-12-31T08:35:04.796Z,40.40
2018-12-31T08:36:04.783Z,43.30
2018-12-31T08:37:04.746Z,42.40
2018-12-31T08:38:04.768Z,41.50
2018-12-31T08:39:04.721Z,45.00
2018-12-31T08:40:04.704Z,44.10
2018-12-31T08:41:04.715Z,44.70
2018-12-31T08:42:04.689Z,45.40
2018-12-31T08:43:04.684Z,47.30
2018-12-31T08:44:04.664Z,45.30
2018-12-31T08:45:04.651Z,44.20
2018-12-31T08:46:04.644Z,44.30
2018-12-31T08:47:04.636Z,46.30
2018-12-31T08:48:04.867Z,45.40
2018-12-31T08:49:04.674Z,49.00
2018-12-31T08:50:04.618Z,49.50
2018-12-31T08:51:04.596Z,48.30
2018-12-31T08:52:04.636Z,49.40
2018-12-31T08:53:04.602Z,48.20
2018-12-31T08:54:04.599Z,53.00
2018-12-31T08:55:04.546Z,47.20
2018-12-31T08:56:04.560Z,48.40
2018-12-31T08:57:04.614Z,42.20
2018-12-31T08:58:04.878Z,48.50
2018-12-31T08:59:04.503Z,40.60
2018-12-31T09:00:04.514Z,39.50
2018-12-31T09:01:04.506Z,45.30
2018-12-31T09:02:04.484Z,45.00
2018-12-31T09:03:04.485Z,45.40
2018-12-31T09:04:04.482Z,46.30
2018-12-31T09:05:04.477Z,40.90
2018-12-31T09:06:04.435Z,39.70
2018-12-31T09:07:04.422Z,38.10
2018-12-31T09:08:04.436Z,41.00
2018-12-31T09:09:04.393Z,39.90
2018-12-31T09:10:04.380Z,35.80
2018-12-31T09:11:04.382Z,32.10
2018-12-31T09:12:04.371Z,31.40
2018-12-31T09:13:04.377Z,30.10
2018-12-31T09:14:04.410Z,32.90
2018-12-31T09:15:04.351Z,31.30
2018-12-31T09:16:04.341Z,29.20
2018-12-31T09:17:04.308Z,32.50
2018-12-31T09:18:04.298Z,29.70
2018-12-31T09:19:04.320Z,30.00
2018-12-31T09:20:04.437Z,30.80
2018-12-31T09:21:04.272Z,28.90
2018-12-31T09:22:04.278Z,30.20
2018-12-31T09:23:04.247Z,29.20
2018-12-31T09:24:04.227Z,29.20
2018-12-31T09:25:04.325Z,30.90
2018-12-31T09:26:04.220Z,30.90
2018-12-31T09:27:04.204Z,30.90
2018-12-31T09:28:04.198Z,31.80
2018-12-31T09:29:04.407Z,30.20
2018-12-31T09:30:04.191Z,30.80
2018-12-31T09:31:04.616Z,33.50
2018-12-31T09:32:04.225Z,33.40
2018-12-31T09:33:04.133Z,30.30
2018-12-31T09:34:04.125Z,28.60
2018-12-31T09:35:04.124Z,27.90
2018-12-31T09:36:04.127Z,29.90
2018-12-31T09:37:04.167Z,27.00
2018-12-31T09:38:04.179Z,29.70
2018-12-31T09:39:04.104Z,28.90
2018-12-31T09:40:04.063Z,29.20
2018-12-31T09:41:04.043Z,29.30
2018-12-31T09:42:04.080Z,31.50
2018-12-31T09:43:04.062Z,32.90
2018-12-31T09:44:04.016Z,33.10
2018-12-31T09:45:04.020Z,30.70
2018-12-31T09:46:04.009Z,32.00
2018-12-31T09:47:04.000Z,33.30
2018-12-31T09:48:04.322Z,32.40
2018-12-31T09:49:04.011Z,33.20
2018-12-31T09:50:03.961Z,34.10
2018-12-31T09:51:03.967Z,36.90
2018-12-31T09:52:03.959Z,34.60
2018-12-31T09:53:04.330Z,35.80
2018-12-31T09:54:03.921Z,30.90
2018-12-31T09:55:03.894Z,27.90
2018-12-31T09:56:03.881Z,33.40
2018-12-31T09:57:03.890Z,29.80
2018-12-31T09:58:03.885Z,30.60
2018-12-31T09:59:03.857Z,30.00
2018-12-31T10:00:03.889Z,29.20
2018-12-31T10:01:03.826Z,30.00
2018-12-31T10:02:03.821Z,31.80
2018-12-31T10:03:03.861Z,33.30
2018-12-31T10:04:03.801Z,31.10
2018-12-31T10:05:03.820Z,31.50
2018-12-31T10:06:03.774Z,34.60
2018-12-31T10:07:03.765Z,29.20
2018-12-31T10:08:03.772Z,27.70
2018-12-31T10:09:03.756Z,30.00
2018-12-31T10:10:03.734Z,28.10
2018-12-31T10:11:03.721Z,29.50
2018-12-31T10:12:03.719Z,30.60
2018-12-31T10:13:03.921Z,31.10
2018-12-31T10:14:03.691Z,30.00
2018-12-31T10:15:03.816Z,29.10
2018-12-31T10:16:03.668Z,30.40
2018-12-31T10:17:03.677Z,32.90
2018-12-31T10:18:03.645Z,32.80
2018-12-31T10:19:03.646Z,28.70
2018-12-31T10:20:03.702Z,28.80
2018-12-31T10:21:03.614Z,28.50
2018-12-31T10:22:03.621Z,28.70
2018-12-31T10:23:03.602Z,28.10
2018-12-31T10:24:03.615Z,28.80
2018-12-31T10:25:03.598Z,27.40
2018-12-31T10:26:03.557Z,29.50
2018-12-31T10:27:03.647Z,27.50
2018-12-31T10:28:03.584Z,27.10
2018-12-31T10:29:03.549Z,26.40
2018-12-31T10:30:03.522Z,27.40
2018-12-31T10:31:03.519Z,29.20
2018-12-31T10:32:03.496Z,29.10
2018-12-31T10:33:03.490Z,28.40
2018-12-31T10:34:04.099Z,27.10
2018-12-31T10:35:03.469Z,27.70
2018-12-31T10:36:03.456Z,27.50
2018-12-31T10:37:03.460Z,26.40
2018-12-31T10:38:03.451Z,26.60
2018-12-31T10:39:03.427Z,27.50
2018-12-31T10:40:03.454Z,29.70
2018-12-31T10:41:03.405Z,26.30
2018-12-31T10:42:03.393Z,26.50
2018-12-31T10:43:03.401Z,26.60
2018-12-31T10:44:03.412Z,25.50
2018-12-31T10:45:03.369Z,23.00
2018-12-31T10:46:03.388Z,25.20
2018-12-31T10:47:03.331Z,25.40
2018-12-31T10:48:03.328Z,24.50
2018-12-31T10:49:03.331Z,25.80
2018-12-31T10:50:03.301Z,24.90
2018-12-31T10:51:03.300Z,24.60
2018-12-31T10:52:03.282Z,25.30
2018-12-31T10:53:03.265Z,24.80
2018-12-31T10:54:03.294Z,25.40
2018-12-31T10:55:03.249Z,26.60
2018-12-31T10:56:03.252Z,27.80
2018-12-31T10:57:03.223Z,30.20
2018-12-31T10:58:03.229Z,27.70
2018-12-31T10:59:03.247Z,28.10
2018-12-31T11:00:03.273Z,28.60
2018-12-31T11:01:03.263Z,30.40
2018-12-31T11:02:03.180Z,31.40
2018-12-31T11:03:03.178Z,33.10
2018-12-31T11:04:03.784Z,32.40
2018-12-31T11:05:03.155Z,31.20
2018-12-31T11:06:03.126Z,31.80
2018-12-31T11:07:03.164Z,31.90
2018-12-31T11:08:03.130Z,35.50
2018-12-31T11:09:03.102Z,34.60
2018-12-31T11:10:03.314Z,34.40
2018-12-31T11:11:03.084Z,34.40
2018-12-31T11:12:03.070Z,35.40
2018-12-31T11:13:03.057Z,37.40
2018-12-31T11:14:03.038Z,37.60
2018-12-31T11:15:03.038Z,38.90
2018-12-31T11:16:03.361Z,39.70
2018-12-31T11:17:03.048Z,40.30
2018-12-31T11:18:02.999Z,41.50
2018-12-31T11:19:02.997Z,40.00
2018-12-31T11:20:02.993Z,41.90
2018-12-31T11:21:02.979Z,40.80
2018-12-31T11:22:02.991Z,37.30
2018-12-31T11:23:02.956Z,37.90
2018-12-31T11:24:02.936Z,37.20
2018-12-31T11:25:02.959Z,37.00
2018-12-31T11:26:02.922Z,39.00
2018-12-31T11:27:02.916Z,36.40
2018-12-31T11:28:02.940Z,35.90
2018-12-31T11:29:02.891Z,35.00
2018-12-31T11:30:02.899Z,34.70
2018-12-31T11:31:03.335Z,36.50
2018-12-31T11:32:02.886Z,39.00
2018-12-31T11:33:02.843Z,36.90
2018-12-31T11:34:02.833Z,36.30
2018-12-31T11:35:02.815Z,34.40
2018-12-31T11:36:02.840Z,35.90
2018-12-31T11:37:02.822Z,34.30
2018-12-31T11:38:02.783Z,35.40
2018-12-31T11:39:02.768Z,37.40
2018-12-31T11:40:02.765Z,37.60
2018-12-31T11:41:02.779Z,39.50
2018-12-31T11:42:02.743Z,35.40
2018-12-31T11:43:02.752Z,34.70
2018-12-31T11:44:02.729Z,36.20
2018-12-31T11:45:02.704Z,35.50
2018-12-31T11:46:02.793Z,33.80
2018-12-31T11:47:03.278Z,33.80
2018-12-31T11:48:02.675Z,30.80
2018-12-31T11:49:02.721Z,33.40
2018-12-31T11:50:02.677Z,33.50
2018-12-31T11:51:02.706Z,33.80
2018-12-31T11:52:02.629Z,32.10
2018-12-31T11:53:02.621Z,30.70
2018-12-31T11:54:02.691Z,33.60
2018-12-31T11:55:03.548Z,33.80
2018-12-31T11:56:02.697Z,34.20
2018-12-31T11:57:02.577Z,34.70
2018-12-31T11:58:02.566Z,32.90
2018-12-31T11:59:02.562Z,34.60
2018-12-31T12:00:02.559Z,37.10
2018-12-31T12:01:02.573Z,36.10
2018-12-31T12:02:02.524Z,35.30
2018-12-31T12:03:02.527Z,35.90
2018-12-31T12:04:02.531Z,34.80
2018-12-31T12:05:02.541Z,38.80
2018-12-31T12:06:02.527Z,36.90
2018-12-31T12:07:02.774Z,34.40
2018-12-31T12:08:02.465Z,39.10
2018-12-31T12:09:02.476Z,36.60
2018-12-31T12:10:02.449Z,35.30
2018-12-31T12:11:02.456Z,39.60
2018-12-31T12:12:02.480Z,40.40
2018-12-31T12:13:02.424Z,39.40
2018-12-31T12:14:02.399Z,37.70
2018-12-31T12:15:02.382Z,38.00
2018-12-31T12:16:02.393Z,36.70
2018-12-31T12:17:02.364Z,40.50
2018-12-31T12:18:02.367Z,40.30
2018-12-31T12:19:02.424Z,40.00
2018-12-31T12:20:02.370Z,42.40
2018-12-31T12:21:02.322Z,41.00
2018-12-31T12:22:02.308Z,37.30
2018-12-31T12:23:02.367Z,37.40
2018-12-31T12:24:02.296Z,37.60
2018-12-31T12:25:02.318Z,37.00
2018-12-31T12:26:02.268Z,41.90
2018-12-31T12:27:02.286Z,37.70
2018-12-31T12:28:02.287Z,41.50
2018-12-31T12:29:02.250Z,43.90
2018-12-31T12:30:02.256Z,43.80
2018-12-31T12:31:02.244Z,45.50
2018-12-31T12:32:02.207Z,43.00
2018-12-31T12:33:02.196Z,44.10
2018-12-31T12:34:02.251Z,49.60
2018-12-31T12:35:02.218Z,43.10
2018-12-31T12:36:02.162Z,38.50
2018-12-31T12:37:02.165Z,43.20
2018-12-31T12:38:02.143Z,42.20
2018-12-31T12:39:02.148Z,38.60
2018-12-31T12:40:03.210Z,40.50
2018-12-31T12:41:02.131Z,39.70
2018-12-31T12:42:02.099Z,40.10
2018-12-31T12:43:02.088Z,42.30
2018-12-31T12:44:02.117Z,43.80
2018-12-31T12:45:02.071Z,39.90
2018-12-31T12:46:02.047Z,38.60
2018-12-31T12:47:02.087Z,37.00
2018-12-31T12:48:02.034Z,41.30
2018-12-31T12:49:02.027Z,39.00
2018-12-31T12:50:02.081Z,40.10
2018-12-31T12:51:02.328Z,43.70
2018-12-31T12:52:02.023Z,39.50
2018-12-31T12:53:01.984Z,35.70
2018-12-31T12:54:01.960Z,36.20